createdAt,value
2018-06-09T00:00:05.666Z,51.6
2018-06-09T00:02:05.427Z,51.6
2018-06-09T00:04:07.932Z,51.6
2018-06-09T00:06:05.857Z,51.6
2018-06-09T00:08:05.517Z,51.6
2018-06-09T00:10:05.249Z,51.6
2018-06-09T00:12:05.925Z,51.6
2018-06-09T00:14:08.248Z,51.7
2018-06-09T00:16:05.969Z,51.7
2018-06-09T00:18:05.860Z,51.6
2018-06-09T00:20:05.712Z,51.7
2018-06-09T00:22:05.116Z,51.8
2018-06-09T00:24:05.433Z,51.8
2018-06-09T00:26:07.654Z,51.6
2018-06-09T00:28:07.890Z,51.8
2018-06-09T00:30:08.110Z,51.8
2018-06-09T00:32:05.804Z,51.8
2018-06-09T00:34:05.484Z,51.8
2018-06-09T00:36:05.175Z,51.8
2018-06-09T00:38:05.411Z,51.6
2018-06-09T00:40:07.717Z,51.9
2018-06-09T00:42:05.371Z,51.9
2018-06-09T00:44:05.010Z,51.9
2018-06-09T00:46:05.753Z,51.8
2018-06-09T00:48:08.010Z,52
2018-06-09T00:50:08.219Z,51.9
2018-06-09T00:52:05.522Z,51.9
2018-06-09T00:54:05.259Z,52
2018-06-09T00:56:05.959Z,52
2018-06-09T00:58:05.681Z,52
2018-06-09T01:00:08.570Z,52
2018-06-09T01:02:05.250Z,52
2018-06-09T01:04:05.808Z,52
2018-06-09T01:06:08.024Z,52
2018-06-09T01:08:05.269Z,52
2018-06-09T01:10:06.542Z,52.1
2018-06-09T01:12:05.300Z,52.2
2018-06-09T01:14:09.228Z,52.2
2018-06-09T01:16:07.450Z,52.2
2018-06-09T01:18:05.499Z,52.2
2018-06-09T01:20:06.552Z,52.2
2018-06-09T01:22:11.031Z,52.1
2018-06-09T01:24:05.846Z,52.2
2018-06-09T01:26:05.646Z,52.3
2018-06-09T01:28:05.969Z,52.2
2018-06-09T01:30:06.237Z,52.2
2018-06-09T01:32:06.033Z,52.3
2018-06-09T01:34:06.213Z,52.2
2018-06-09T01:36:07.427Z,52.3
2018-06-09T01:38:05.944Z,52.3
2018-06-09T01:40:15.204Z,52.3
2018-06-09T01:42:05.031Z,52.3
2018-06-09T01:44:05.710Z,52.3
2018-06-09T01:46:05.476Z,52.3
2018-06-09T01:48:05.182Z,52.3
2018-06-09T01:50:05.887Z,52.4
2018-06-09T01:52:05.677Z,52.2
2018-06-09T01:54:05.407Z,52.5
2018-06-09T01:56:05.198Z,52.5
2018-06-09T01:58:05.896Z,52.5
2018-06-09T02:00:05.566Z,52.5
2018-06-09T02:02:05.409Z,52.5
2018-06-09T02:04:05.136Z,52.5
2018-06-09T02:06:05.795Z,52.6
2018-06-09T02:08:05.492Z,52.6
2018-06-09T02:10:05.231Z,52.6
2018-06-09T02:12:05.908Z,52.6
2018-06-09T02:14:05.190Z,52.4
2018-06-09T02:16:05.868Z,52.6
2018-06-09T02:18:10.934Z,52.7
2018-06-09T02:20:08.121Z,52.6
2018-06-09T02:22:08.645Z,52.6
2018-06-09T02:24:07.899Z,52.7
2018-06-09T02:26:07.645Z,52.8
2018-06-09T02:28:10.691Z,52.9
2018-06-09T02:30:07.775Z,52.8
2018-06-09T02:32:10.503Z,52.8
2018-06-09T02:34:05.270Z,52.8
2018-06-09T02:36:05.130Z,52.8
2018-06-09T02:38:08.376Z,53
2018-06-09T02:40:07.785Z,53
2018-06-09T02:42:05.547Z,53
2018-06-09T02:44:06.383Z,52.8
2018-06-09T02:46:05.699Z,53
2018-06-09T02:48:08.455Z,53
2018-06-09T02:50:05.117Z,52.8
2018-06-09T02:52:05.804Z,52.9
2018-06-09T02:54:05.491Z,52.9
2018-06-09T02:56:05.251Z,52.9
2018-06-09T02:58:05.947Z,53
2018-06-09T03:00:05.662Z,53.1
2018-06-09T03:02:05.373Z,53.1
2018-06-09T03:04:05.099Z,53.3
2018-06-09T03:06:05.409Z,53.2
2018-06-09T03:08:05.102Z,53.2
2018-06-09T03:10:05.824Z,53.3
2018-06-09T03:12:05.501Z,53.3
2018-06-09T03:14:05.191Z,53.5
2018-06-09T03:16:06.041Z,53.2
2018-06-09T03:18:06.072Z,53.3
2018-06-09T03:20:05.791Z,53.2
2018-06-09T03:22:06.005Z,53.3
2018-06-09T03:24:05.673Z,53.2
2018-06-09T03:26:05.393Z,53.2
2018-06-09T03:28:18.228Z,53.2
2018-06-09T03:30:05.559Z,53.1
2018-06-09T03:32:07.864Z,53
2018-06-09T03:34:05.813Z,53
2018-06-09T03:36:08.098Z,53.1
2018-06-09T03:38:05.795Z,53.1
2018-06-09T03:40:05.507Z,53.2
2018-06-09T03:42:05.215Z,53.2
2018-06-09T03:44:05.912Z,53.2
2018-06-09T03:46:05.644Z,53.2
2018-06-09T03:48:05.376Z,53.4
2018-06-09T03:50:05.061Z,53.4
2018-06-09T03:52:05.770Z,53.1
2018-06-09T03:54:05.475Z,53.3
2018-06-09T03:56:05.232Z,53.2
2018-06-09T03:58:05.936Z,53.4
2018-06-09T04:00:13.209Z,53.2
2018-06-09T04:02:05.929Z,53.2
2018-06-09T04:04:05.649Z,53.2
2018-06-09T04:06:05.385Z,53.2
2018-06-09T04:08:05.089Z,53.2
2018-06-09T04:10:05.778Z,53.2
2018-06-09T04:12:05.968Z,53.2
2018-06-09T04:14:05.667Z,53.1
2018-06-09T04:16:05.674Z,53.2
2018-06-09T04:18:08.056Z,53
2018-06-09T04:20:05.779Z,53
2018-06-09T04:22:05.036Z,53.1
2018-06-09T04:24:05.685Z,53.2
2018-06-09T04:26:05.366Z,53.2
2018-06-09T04:28:05.056Z,53.4
2018-06-09T04:30:05.753Z,52.9
2018-06-09T04:32:05.439Z,53.3
2018-06-09T04:34:05.177Z,53.2
2018-06-09T04:36:10.907Z,53.1
2018-06-09T04:38:06.143Z,53.1
2018-06-09T04:40:05.830Z,53.1
2018-06-09T04:42:07.968Z,53
2018-06-09T04:44:05.931Z,53
2018-06-09T04:46:05.277Z,53
2018-06-09T04:48:09.304Z,52.9
2018-06-09T04:50:08.441Z,53.1
2018-06-09T04:52:05.069Z,53
2018-06-09T04:54:05.761Z,52.8
2018-06-09T04:56:05.458Z,52.9
2018-06-09T04:58:10.222Z,52.6
2018-06-09T05:00:05.913Z,52.6
2018-06-09T05:02:05.584Z,52.8
2018-06-09T05:04:05.335Z,52.7
2018-06-09T05:06:05.111Z,52.6
2018-06-09T05:08:05.437Z,52.5
2018-06-09T05:10:07.686Z,52.7
2018-06-09T05:12:05.924Z,52.5
2018-06-09T05:14:05.657Z,52.7
2018-06-09T05:16:05.902Z,52.6
2018-06-09T05:18:05.837Z,52.5
2018-06-09T05:20:05.484Z,52.3
2018-06-09T05:22:05.183Z,52.5
2018-06-09T05:24:05.850Z,52.6
2018-06-09T05:26:05.522Z,52.8
2018-06-09T05:28:05.717Z,52.3
2018-06-09T05:30:08.148Z,52.8
2018-06-09T05:32:05.846Z,52.6
2018-06-09T05:34:08.097Z,52.5
2018-06-09T05:36:05.848Z,52.5
2018-06-09T05:38:05.578Z,52.7
2018-06-09T05:40:05.342Z,52.6
2018-06-09T05:42:05.521Z,52.3
2018-06-09T05:44:05.236Z,52.5
2018-06-09T05:46:05.945Z,52.7
2018-06-09T05:48:05.615Z,52.6
2018-06-09T05:50:05.301Z,52.7
2018-06-09T05:52:04.987Z,52.6
2018-06-09T05:54:05.743Z,52.5
2018-06-09T05:56:08.019Z,52.7
2018-06-09T05:58:10.828Z,52.5
2018-06-09T06:00:05.530Z,52.5
2018-06-09T06:02:05.269Z,52.4
2018-06-09T06:04:11.025Z,52.6
2018-06-09T06:06:05.671Z,52.8
2018-06-09T06:08:07.883Z,52.5
2018-06-09T06:10:05.563Z,52.5
2018-06-09T06:12:07.733Z,52.4
2018-06-09T06:14:05.393Z,52.4
2018-06-09T06:16:05.612Z,52.3
2018-06-09T06:18:05.473Z,52.3
2018-06-09T06:20:05.672Z,52.6
2018-06-09T06:22:06.132Z,52.6
2018-06-09T06:24:10.903Z,52.3
2018-06-09T06:26:13.138Z,52.3
2018-06-09T06:28:08.375Z,52.5
2018-06-09T06:30:05.073Z,52.5
2018-06-09T06:32:08.325Z,52.2
2018-06-09T06:34:05.991Z,52.2
2018-06-09T06:36:05.655Z,52.3
2018-06-09T06:38:05.327Z,52.3
2018-06-09T06:40:05.221Z,52.2
2018-06-09T06:42:05.954Z,52.1
2018-06-09T06:44:05.669Z,52.1
2018-06-09T06:46:05.383Z,52.2
2018-06-09T06:48:08.211Z,52.2
2018-06-09T06:50:05.939Z,52
2018-06-09T06:52:05.657Z,52.3
2018-06-09T06:54:05.377Z,52.2
2018-06-09T06:56:05.077Z,52.2
2018-06-09T06:58:06.108Z,52.2
2018-06-09T07:00:05.824Z,52.1
2018-06-09T07:02:08.375Z,52.3
2018-06-09T07:04:10.923Z,52.3
2018-06-09T07:06:10.640Z,52.4
2018-06-09T07:08:08.062Z,52.4
2018-06-09T07:10:05.775Z,52.4
2018-06-09T07:12:05.432Z,52.3
2018-06-09T07:14:05.638Z,52.4
2018-06-09T07:16:05.903Z,52.3
2018-06-09T07:18:07.805Z,52.4
2018-06-09T07:20:05.504Z,52.4
2018-06-09T07:22:05.766Z,52.4
2018-06-09T07:24:05.107Z,52.4
2018-06-09T07:26:05.822Z,52.6
2018-06-09T07:28:05.518Z,52.6
2018-06-09T07:30:07.813Z,52.8
2018-06-09T07:32:13.074Z,52.4
2018-06-09T07:34:05.763Z,52.4
2018-06-09T07:36:05.464Z,52.5
2018-06-09T07:38:05.391Z,52.6
2018-06-09T07:40:05.639Z,52.3
2018-06-09T07:42:06.010Z,52.6
2018-06-09T07:44:08.416Z,52.5
2018-06-09T07:46:05.349Z,52.5
2018-06-09T07:48:12.637Z,52.2
2018-06-09T07:50:05.866Z,52.3
2018-06-09T07:52:08.054Z,53
2018-06-09T07:54:05.422Z,52.8
2018-06-09T07:56:05.763Z,52.8
2018-06-09T07:58:05.701Z,52.6
2018-06-09T08:00:05.408Z,52.8
2018-06-09T08:02:05.662Z,52.7
2018-06-09T08:04:06.163Z,52.8
2018-06-09T08:06:05.819Z,52.8
2018-06-09T08:08:05.040Z,52.8
2018-06-09T08:10:05.504Z,52.8
2018-06-09T08:12:06.139Z,52.8
2018-06-09T08:14:06.208Z,52.7
2018-06-09T08:16:06.914Z,52.5
2018-06-09T08:18:05.794Z,52.9
2018-06-09T08:20:05.655Z,52.8
2018-06-09T08:22:05.976Z,52.9
2018-06-09T08:24:05.238Z,52.9
2018-06-09T08:26:05.995Z,52.9
2018-06-09T08:28:05.703Z,52.3
2018-06-09T08:30:05.478Z,52.7
2018-06-09T08:32:05.672Z,53.1
2018-06-09T08:34:05.598Z,53.1
2018-06-09T08:36:05.585Z,53
2018-06-09T08:38:08.072Z,53.1
2018-06-09T08:40:11.034Z,53.1
2018-06-09T08:42:05.915Z,53
2018-06-09T08:44:05.906Z,52.9
2018-06-09T08:46:05.637Z,53
2018-06-09T08:48:05.333Z,53.3
2018-06-09T08:50:05.111Z,53
2018-06-09T08:52:05.990Z,53
2018-06-09T08:54:05.323Z,53
2018-06-09T08:56:05.955Z,53.2
2018-06-09T08:58:05.635Z,53
2018-06-09T09:00:05.323Z,53.1
2018-06-09T09:02:06.123Z,53
2018-06-09T09:04:05.862Z,53.1
2018-06-09T09:06:05.580Z,53
2018-06-09T09:08:05.771Z,53.2
2018-06-09T09:10:05.425Z,53
2018-06-09T09:12:05.126Z,52.8
2018-06-09T09:14:05.467Z,52.9
2018-06-09T09:16:05.186Z,53.1
2018-06-09T09:18:05.599Z,53.2
2018-06-09T09:20:05.311Z,53.2
2018-06-09T09:22:05.291Z,53.2
2018-06-09T09:24:05.756Z,53.2
2018-06-09T09:26:05.412Z,53.2
2018-06-09T09:28:05.171Z,53.1
2018-06-09T09:30:05.903Z,53
2018-06-09T09:32:08.289Z,53.1
2018-06-09T09:34:05.922Z,53.1
2018-06-09T09:36:05.574Z,52.9
2018-06-09T09:38:05.268Z,52.8
2018-06-09T09:40:05.513Z,52.9
2018-06-09T09:42:05.463Z,52.9
2018-06-09T09:44:05.165Z,52.9
2018-06-09T09:46:05.879Z,52.6
2018-06-09T09:48:05.563Z,52.9
2018-06-09T09:50:05.261Z,52.5
2018-06-09T09:52:05.587Z,53
2018-06-09T09:54:05.865Z,53.2
2018-06-09T09:56:05.574Z,53.2
2018-06-09T09:58:05.300Z,53.2
2018-06-09T10:00:06.092Z,53.1
2018-06-09T10:02:13.412Z,53.3
2018-06-09T10:04:05.620Z,53.3
2018-06-09T10:06:05.293Z,53.2
2018-06-09T10:08:06.045Z,53.2
2018-06-09T10:10:05.953Z,53.1
2018-06-09T10:12:05.750Z,52.9
2018-06-09T10:14:10.589Z,52.9
2018-06-09T10:16:05.279Z,53
2018-06-09T10:18:07.701Z,52.9
2018-06-09T10:20:06.028Z,52.9
2018-06-09T10:22:05.745Z,53.3
2018-06-09T10:24:05.434Z,53.4
2018-06-09T10:26:05.153Z,53.3
2018-06-09T10:28:05.876Z,53.6
2018-06-09T10:30:05.094Z,53.4
2018-06-09T10:32:05.807Z,53.3
2018-06-09T10:34:05.483Z,52.9
2018-06-09T10:36:05.253Z,53.1
2018-06-09T10:38:05.589Z,53.1
2018-06-09T10:40:05.242Z,53.3
2018-06-09T10:42:05.916Z,53.3
2018-06-09T10:44:05.597Z,53.4
2018-06-09T10:46:07.821Z,53.1
2018-06-09T10:48:05.544Z,53.1
2018-06-09T10:50:05.237Z,53.1
2018-06-09T10:52:11.024Z,53
2018-06-09T10:54:05.640Z,53
2018-06-09T10:56:05.837Z,52.9
2018-06-09T10:58:05.518Z,52.8
2018-06-09T11:00:05.766Z,52.8
2018-06-09T11:02:05.463Z,52.8
2018-06-09T11:04:05.156Z,52.9
2018-06-09T11:06:05.919Z,53.2
2018-06-09T11:08:05.634Z,53.4
2018-06-09T11:10:05.567Z,53.2
2018-06-09T11:12:07.986Z,52.8
2018-06-09T11:14:05.687Z,52.8
2018-06-09T11:16:05.340Z,52.9
2018-06-09T11:18:05.243Z,52.8
2018-06-09T11:20:05.930Z,53
2018-06-09T11:22:07.667Z,52.9
2018-06-09T11:24:05.392Z,52.9
2018-06-09T11:26:08.489Z,53.3
2018-06-09T11:28:05.730Z,53.1
2018-06-09T11:30:05.434Z,53
2018-06-09T11:32:05.154Z,53.1
2018-06-09T11:34:05.842Z,53.3
2018-06-09T11:36:05.540Z,53.2
2018-06-09T11:38:05.771Z,53.3
2018-06-09T11:40:05.522Z,53.2
2018-06-09T11:42:05.193Z,53.2
2018-06-09T11:44:07.689Z,53.1
2018-06-09T11:46:05.467Z,53.1
2018-06-09T11:48:05.120Z,53
2018-06-09T11:50:06.019Z,52.9
2018-06-09T11:52:05.701Z,52.9
2018-06-09T11:54:05.177Z,52.9
2018-06-09T11:56:08.454Z,52.9
2018-06-09T11:58:05.141Z,53
2018-06-09T12:00:07.873Z,52.7
2018-06-09T12:02:13.124Z,53
2018-06-09T12:04:05.811Z,53
2018-06-09T12:06:05.025Z,53.1
2018-06-09T12:08:05.316Z,53.1
2018-06-09T12:10:07.548Z,53
2018-06-09T12:12:05.234Z,53.1
2018-06-09T12:14:05.936Z,52.9
2018-06-09T12:16:05.587Z,52.8
2018-06-09T12:18:08.142Z,52.8
2018-06-09T12:20:07.887Z,53
2018-06-09T12:22:05.142Z,53
2018-06-09T12:24:05.357Z,53
2018-06-09T12:26:05.345Z,53.1
2018-06-09T12:28:07.644Z,53
2018-06-09T12:30:05.792Z,52.9
2018-06-09T12:32:07.694Z,52.8
2018-06-09T12:34:07.915Z,52.7
2018-06-09T12:36:05.576Z,52.7
2018-06-09T12:38:08.681Z,52.8
2018-06-09T12:40:05.396Z,52.8
2018-06-09T12:42:05.111Z,52.8
2018-06-09T12:44:13.493Z,52.9
2018-06-09T12:46:05.692Z,53
2018-06-09T12:48:05.867Z,52.8
2018-06-09T12:50:05.558Z,52.9
2018-06-09T12:52:05.313Z,53
2018-06-09T12:54:07.515Z,53.1
2018-06-09T12:56:05.204Z,53.1
2018-06-09T12:58:05.989Z,53.3
2018-06-09T13:00:08.194Z,53.1
2018-06-09T13:02:05.420Z,53.1
2018-06-09T13:04:05.196Z,53.1
2018-06-09T13:06:05.905Z,53
2018-06-09T13:08:05.617Z,53
2018-06-09T13:10:12.891Z,52.8
2018-06-09T13:12:05.560Z,53
2018-06-09T13:14:05.876Z,52.8
2018-06-09T13:16:10.416Z,53.1
2018-06-09T13:18:05.832Z,53.1
2018-06-09T13:20:07.618Z,52.8
2018-06-09T13:22:05.372Z,52.8
2018-06-09T13:24:08.123Z,52.8
2018-06-09T13:26:05.826Z,52.9
2018-06-09T13:28:10.550Z,53
2018-06-09T13:30:05.239Z,53
2018-06-09T13:32:05.988Z,52.9
2018-06-09T13:34:05.645Z,52.7
2018-06-09T13:36:05.437Z,52.9
2018-06-09T13:38:05.218Z,52.8
2018-06-09T13:40:08.432Z,52.7
2018-06-09T13:42:05.119Z,52.7
2018-06-09T13:44:05.766Z,52.6
2018-06-09T13:46:05.579Z,52.7
2018-06-09T13:48:05.368Z,52.8
2018-06-09T13:50:05.044Z,52.7
2018-06-09T13:52:08.260Z,53
2018-06-09T13:54:06.008Z,52.7
2018-06-09T13:56:05.487Z,52.9
2018-06-09T13:58:05.213Z,52.9
2018-06-09T14:00:05.939Z,52.7
2018-06-09T14:02:05.179Z,52.9
2018-06-09T14:04:05.867Z,52.8
2018-06-09T14:06:05.607Z,52.9
2018-06-09T14:08:05.519Z,53
2018-06-09T14:10:05.526Z,53
2018-06-09T14:12:05.291Z,53
2018-06-09T14:14:05.974Z,52.9
2018-06-09T14:16:08.336Z,52.8
2018-06-09T14:18:07.767Z,53
2018-06-09T14:20:05.477Z,52.9
2018-06-09T14:22:05.333Z,52.9
2018-06-09T14:24:05.313Z,52.8
2018-06-09T14:26:06.150Z,53
2018-06-09T14:28:05.953Z,52.8
2018-06-09T14:30:05.992Z,52.7
2018-06-09T14:32:05.769Z,52.7
2018-06-09T14:34:05.447Z,52.6
2018-06-09T14:36:05.186Z,52.5
2018-06-09T14:38:05.933Z,52.5
2018-06-09T14:40:05.591Z,52.4
2018-06-09T14:42:05.281Z,52.6
2018-06-09T14:44:06.054Z,52.6
2018-06-09T14:46:05.781Z,52.6
2018-06-09T14:48:05.171Z,52.6
2018-06-09T14:50:06.780Z,52.5
2018-06-09T14:52:05.823Z,52.5
2018-06-09T14:54:05.716Z,52.5
2018-06-09T14:56:05.719Z,52.5
2018-06-09T14:58:05.502Z,52.6
2018-06-09T15:00:05.436Z,52.5
2018-06-09T15:02:07.629Z,52.5
2018-06-09T15:04:05.258Z,52.5
2018-06-09T15:06:08.550Z,52.5
2018-06-09T15:08:05.697Z,52.5
2018-06-09T15:10:05.631Z,52.5
2018-06-09T15:12:05.836Z,52.4
2018-06-09T15:14:05.594Z,52.5
2018-06-09T15:16:05.495Z,52.5
2018-06-09T15:18:05.392Z,52.5
2018-06-09T15:20:05.610Z,52.5
2018-06-09T15:22:05.288Z,52.6
2018-06-09T15:24:05.492Z,52.6
2018-06-09T15:26:05.721Z,52.5
2018-06-09T15:28:09.265Z,52.4
2018-06-09T15:30:05.201Z,52.5
2018-06-09T15:32:08.395Z,52.4
2018-06-09T15:34:06.568Z,52.4
2018-06-09T15:36:06.069Z,52.4
2018-06-09T15:38:06.251Z,52.5
2018-06-09T15:40:08.680Z,52.5
2018-06-09T15:42:05.374Z,52.5
2018-06-09T15:44:07.830Z,52.5
2018-06-09T15:46:06.023Z,52.4
2018-06-09T15:48:06.020Z,52.4
2018-06-09T15:50:05.923Z,52.6
2018-06-09T15:52:05.888Z,52.5
2018-06-09T15:54:10.228Z,52.3
2018-06-09T15:56:06.014Z,52.5
2018-06-09T15:58:05.678Z,52.5
2018-06-09T16:00:05.371Z,52.3
2018-06-09T16:02:05.065Z,52.4
2018-06-09T16:04:05.719Z,52.5
2018-06-09T16:06:07.947Z,52.6
2018-06-09T16:08:05.632Z,52.6
2018-06-09T16:10:05.336Z,52.7
2018-06-09T16:12:05.108Z,52.6
2018-06-09T16:14:05.913Z,52.6
2018-06-09T16:16:08.152Z,52.2
2018-06-09T16:18:05.083Z,52.6
2018-06-09T16:20:06.637Z,52.7
2018-06-09T16:22:05.071Z,52.7
2018-06-09T16:24:07.839Z,52.6
2018-06-09T16:26:07.535Z,52.6
2018-06-09T16:28:05.217Z,52.6
2018-06-09T16:30:08.431Z,52.6
2018-06-09T16:32:05.318Z,52.6
2018-06-09T16:34:05.408Z,52.6
2018-06-09T16:36:10.724Z,52.6
2018-06-09T16:38:05.957Z,52.6
2018-06-09T16:40:05.970Z,52.6
2018-06-09T16:42:05.647Z,52.6
2018-06-09T16:44:06.007Z,52.6
2018-06-09T16:46:05.724Z,52.7
2018-06-09T16:48:05.930Z,52.6
2018-06-09T16:50:05.933Z,52.6
2018-06-09T16:52:05.641Z,52.6
2018-06-09T16:54:05.491Z,52.5
2018-06-09T16:56:05.495Z,52.7
2018-06-09T16:58:07.732Z,52.6
2018-06-09T17:00:06.528Z,52.6
2018-06-09T17:02:08.037Z,52.4
2018-06-09T17:04:05.899Z,52.4
2018-06-09T17:06:05.864Z,52.6
2018-06-09T17:08:05.549Z,52.6
2018-06-09T17:10:05.399Z,52.6
2018-06-09T17:12:05.615Z,52.6
2018-06-09T17:14:06.003Z,52.4
2018-06-09T17:16:05.759Z,52.9
2018-06-09T17:18:08.250Z,52.7
2018-06-09T17:20:06.021Z,52.7
2018-06-09T17:22:05.357Z,52.8
2018-06-09T17:24:05.083Z,52.7
2018-06-09T17:26:05.825Z,52.7
2018-06-09T17:28:10.207Z,52.7
2018-06-09T17:30:05.969Z,52.7
2018-06-09T17:32:05.681Z,52.7
2018-06-09T17:34:08.211Z,52.6
2018-06-09T17:36:05.955Z,52.6
2018-06-09T17:38:08.258Z,52.7
2018-06-09T17:40:05.222Z,52.7
2018-06-09T17:42:05.932Z,52.7
2018-06-09T17:44:05.722Z,52.9
2018-06-09T17:46:05.714Z,52.7
2018-06-09T17:48:05.705Z,52.9
2018-06-09T17:50:05.707Z,52.9
2018-06-09T17:52:05.477Z,52.8
2018-06-09T17:54:06.839Z,52.8
2018-06-09T17:56:06.379Z,52.7
2018-06-09T17:58:10.170Z,52.8
2018-06-09T18:00:06.031Z,52.8
2018-06-09T18:02:09.495Z,52.8
2018-06-09T18:04:06.365Z,52.8
2018-06-09T18:06:07.023Z,52.8
2018-06-09T18:08:19.188Z,52.7
2018-06-09T18:10:05.654Z,52.8
2018-06-09T18:12:06.657Z,52.7
2018-06-09T18:14:12.420Z,52.8
2018-06-09T18:16:08.700Z,52.8
2018-06-09T18:18:08.734Z,52.9
2018-06-09T18:20:06.344Z,52.7
2018-06-09T18:22:05.103Z,52.9
2018-06-09T18:24:08.827Z,52.9
2018-06-09T18:26:05.835Z,53
2018-06-09T18:28:08.055Z,53
2018-06-09T18:30:06.467Z,52.9
2018-06-09T18:32:08.838Z,52.9
2018-06-09T18:34:09.271Z,53.2
2018-06-09T18:36:06.750Z,53.1
2018-06-09T18:38:06.659Z,53.2
2018-06-09T18:40:07.879Z,53.3
2018-06-09T18:42:06.244Z,53.3
2018-06-09T18:44:09.511Z,53.3
2018-06-09T18:46:10.314Z,53.4
2018-06-09T18:48:05.023Z,53.4
2018-06-09T18:50:05.967Z,53.3
2018-06-09T18:52:05.830Z,53.3
2018-06-09T18:54:05.540Z,53.3
2018-06-09T18:56:05.224Z,53.5
2018-06-09T18:58:05.958Z,53.4
2018-06-09T19:00:08.211Z,53.3
2018-06-09T19:02:11.121Z,53.3
2018-06-09T19:04:05.504Z,53.3
2018-06-09T19:06:08.298Z,53.4
2018-06-09T19:08:06.056Z,53.4
2018-06-09T19:10:13.373Z,53.4
2018-06-09T19:12:05.269Z,53.2
2018-06-09T19:14:06.220Z,53.4
2018-06-09T19:16:05.961Z,53.4
2018-06-09T19:18:07.897Z,53.3
2018-06-09T19:20:05.146Z,53.3
2018-06-09T19:22:06.236Z,53.5
2018-06-09T19:24:05.331Z,53.5
2018-06-09T19:26:05.006Z,53.3
2018-06-09T19:28:05.692Z,53.5
2018-06-09T19:30:07.913Z,53.6
2018-06-09T19:32:05.933Z,53.6
2018-06-09T19:34:08.465Z,53.5
2018-06-09T19:36:07.361Z,53.5
2018-06-09T19:38:05.626Z,53.5
2018-06-09T19:40:05.408Z,53.4
2018-06-09T19:42:07.734Z,53.3
2018-06-09T19:44:10.494Z,53.5
2018-06-09T19:46:07.697Z,53.5
2018-06-09T19:48:10.693Z,53.6
2018-06-09T19:50:06.189Z,53.4
2018-06-09T19:53:22.877Z,53.6
2018-06-09T19:54:08.118Z,53.6
2018-06-09T19:56:08.329Z,53.6
2018-06-09T19:58:06.024Z,53.5
2018-06-09T20:00:05.951Z,53.6
2018-06-09T20:02:05.718Z,53.5
2018-06-09T20:04:08.034Z,53.5
2018-06-09T20:06:05.731Z,53.5
2018-06-09T20:08:05.981Z,53.3
2018-06-09T20:10:08.195Z,53.5
2018-06-09T20:12:06.024Z,53.3
2018-06-09T20:14:05.763Z,53.5
2018-06-09T20:16:07.550Z,53.4
2018-06-09T20:18:05.470Z,53.3
2018-06-09T20:20:05.351Z,53.4
2018-06-09T20:24:22.271Z,53.3
2018-06-09T20:26:21.274Z,53.3
2018-06-09T20:28:06.082Z,53.3
2018-06-09T20:30:05.326Z,53.3
2018-06-09T20:32:05.048Z,53.3
2018-06-09T20:34:36.344Z,53.3
2018-06-09T20:36:05.079Z,53.3
2018-06-09T20:38:05.769Z,53.3
2018-06-09T20:40:05.486Z,53.3
2018-06-09T20:42:05.804Z,53.2
2018-06-09T20:44:05.542Z,53.3
2018-06-09T20:46:05.358Z,53.4
2018-06-09T20:48:05.423Z,53.3
2018-06-09T20:50:06.435Z,53.4
2018-06-09T20:52:05.273Z,53.3
2018-06-09T20:54:05.706Z,53.3
2018-06-09T20:56:07.929Z,53.3
2018-06-09T20:58:05.243Z,53.3
2018-06-09T21:00:10.590Z,53.1
2018-06-09T21:02:05.257Z,53.1
2018-06-09T21:04:06.008Z,53.3
2018-06-09T21:06:08.305Z,53.3
2018-06-09T21:08:08.130Z,53.4
2018-06-09T21:10:05.935Z,53.3
2018-06-09T21:12:10.709Z,53.4
2018-06-09T21:14:05.557Z,53.4
2018-06-09T21:16:05.323Z,53.2
2018-06-09T21:18:05.265Z,53.4
2018-06-09T21:20:11.053Z,53.1
2018-06-09T21:22:05.846Z,53.1
2018-06-09T21:24:05.541Z,53.2
2018-06-09T21:26:08.333Z,52.9
2018-06-09T21:28:07.637Z,53.1
2018-06-09T21:30:05.886Z,53.1
2018-06-09T21:32:06.818Z,53
2018-06-09T21:34:06.513Z,52.8
2018-06-09T21:36:07.738Z,52.6
2018-06-09T21:38:05.757Z,52.5
2018-06-09T21:40:05.439Z,52.5
2018-06-09T21:42:05.105Z,52.3
2018-06-09T21:44:08.404Z,51.9
2018-06-09T21:46:05.646Z,51.9
2018-06-09T21:48:05.346Z,52
2018-06-09T21:50:05.306Z,51.7
2018-06-09T21:52:06.020Z,52
2018-06-09T21:54:05.859Z,51.8
2018-06-09T21:56:05.616Z,51.6
2018-06-09T21:58:05.503Z,51.3
2018-06-09T22:00:05.265Z,51.5
2018-06-09T22:02:11.356Z,51.3
2018-06-09T22:04:05.035Z,51.4
2018-06-09T22:06:05.724Z,51.4
2018-06-09T22:08:05.668Z,51.4
2018-06-09T22:10:05.671Z,51.1
2018-06-09T22:12:06.007Z,51.2
2018-06-09T22:14:05.799Z,51.4
2018-06-09T22:16:05.580Z,51.2
2018-06-09T22:18:05.463Z,51.2
2018-06-09T22:20:10.475Z,50.8
2018-06-09T22:22:05.270Z,51
2018-06-09T22:24:05.067Z,50.7
2018-06-09T22:26:05.750Z,50.9
2018-06-09T22:28:07.995Z,50.9
2018-06-09T22:30:05.764Z,50.9
2018-06-09T22:32:05.516Z,51
2018-06-09T22:34:08.323Z,50.6
2018-06-09T22:36:05.534Z,50.6
2018-06-09T22:38:05.318Z,50.7
2018-06-09T22:40:05.023Z,50.9
2018-06-09T22:42:05.311Z,50.7
2018-06-09T22:44:05.314Z,50.8
2018-06-09T22:46:05.050Z,50.7
2018-06-09T22:48:05.783Z,50.6
2018-06-09T22:50:05.032Z,50.8
2018-06-09T22:52:06.069Z,50.5
2018-06-09T22:54:08.436Z,50.5
2018-06-09T22:56:10.212Z,50.4
2018-06-09T22:58:05.885Z,50.4
2018-06-09T23:00:05.544Z,50.6
2018-06-09T23:02:05.297Z,50.5
2018-06-09T23:04:08.508Z,50.6
2018-06-09T23:06:05.207Z,50.6
2018-06-09T23:08:08.418Z,50.5
2018-06-09T23:10:07.576Z,50.5
2018-06-09T23:12:05.226Z,50.3
2018-06-09T23:14:11.244Z,50.3
2018-06-09T23:16:05.956Z,50.2
2018-06-09T23:18:10.876Z,50.2
2018-06-09T23:20:05.592Z,50.2
2018-06-09T23:22:05.402Z,50.1
2018-06-09T23:24:05.104Z,50.4
2018-06-09T23:26:05.832Z,50.2
2018-06-09T23:28:10.554Z,50
2018-06-09T23:30:07.798Z,50.4
2018-06-09T23:32:05.616Z,50.4
2018-06-09T23:34:05.365Z,50.4
2018-06-09T23:36:05.030Z,50.5
2018-06-09T23:38:05.892Z,50.4
2018-06-09T23:40:10.637Z,50.4
2018-06-09T23:42:05.993Z,50.4
2018-06-09T23:44:05.773Z,50.4
2018-06-09T23:46:08.024Z,50.3
2018-06-09T23:48:05.729Z,50.3
2018-06-09T23:50:05.455Z,50.1
2018-06-09T23:52:05.156Z,50.1
2018-06-09T23:54:05.829Z,50.1
2018-06-09T23:56:05.793Z,50.1
2018-06-09T23:58:05.548Z,50.1
